sensor_id;sensor_type;location;lat;lon;timestamp;pressure;altitude;pressure_sealevel;temperature;humidity
50166;BME280;36071;48.140;11.516;2023-03-19T00:03:30;95170.0;;;11.6;53.9
50166;BME280;36071;48.140;11.516;2023-03-19T00:08:30;95180.0;;;11.6;54.2
50166;BME280;36071;48.140;11.516;2023-03-19T00:13:30;95180.0;;;11.5;54.5
50166;BME280;36071;48.140;11.516;2023-03-19T00:18:30;95160.0;;;11.5;54.9
50166;BME280;36071;48.140;11.516;2023-03-19T00:23:30;95170.0;;;11.4;55.1
50166;BME280;36071;48.140;11.516;2023-03-19T00:28:30;95170.0;;;11.4;54.9
50166;BME280;36071;48.140;11.516;2023-03-19T00:38:30;95180.0;;;11.2;55.2
50166;BME280;36071;48.140;11.516;2023-03-19T00:43:30;95170.0;;;11.2;55.3
50166;BME280;36071;48.140;11.516;2023-03-19T00:48:30;95180.0;;;11.1;55.8
50166;BME280;36071;48.140;11.516;2023-03-19T00:53:30;95180.0;;;11.1;55.7
50166;BME280;36071;48.140;11.516;2023-03-19T00:58:30;95180.0;;;11.0;56.1
50166;BME280;36071;48.140;11.516;2023-03-19T01:08:30;95170.0;;;10.9;56.1
50166;BME280;36071;48.140;11.516;2023-03-19T01:13:30;95180.0;;;10.8;56.3
50166;BME280;36071;48.140;11.516;2023-03-19T01:18:30;95190.0;;;10.8;56.2
50166;BME280;36071;48.140;11.516;2023-03-19T01:23:30;95180.0;;;10.6;56.7
50166;BME280;36071;48.140;11.516;2023-03-19T01:28:30;95180.0;;;10.6;57.1
50166;BME280;36071;48.140;11.516;2023-03-19T01:33:30;95200.0;;;10.6;57.3
50166;BME280;36071;48.140;11.516;2023-03-19T01:38:30;95190.0;;;10.4;57.8
50166;BME280;36071;48.140;11.516;2023-03-19T01:43:30;95200.0;;;10.2;58.2
50166;BME280;36071;48.140;11.516;2023-03-19T01:48:31;95190.0;;;10.1;58.1
50166;BME280;36071;48.140;11.516;2023-03-19T01:53:30;95190.0;;;9.7;60.1
50166;BME280;36071;48.140;11.516;2023-03-19T01:58:30;95190.0;;;9.8;59.2
50166;BME280;36071;48.140;11.516;2023-03-19T02:03:30;95190.0;;;9.9;59.3
50166;BME280;36071;48.140;11.516;2023-03-19T02:08:30;95190.0;;;9.9;59.2
50166;BME280;36071;48.140;11.516;2023-03-19T02:13:30;95200.0;;;9.8;59.4
50166;BME280;36071;48.140;11.516;2023-03-19T02:18:30;95200.0;;;9.4;60.8
50166;BME280;36071;48.140;11.516;2023-03-19T02:23:32;95200.0;;;9.4;60.9
50166;BME280;36071;48.140;11.516;2023-03-19T02:28:30;95190.0;;;9.5;60.6
50166;BME280;36071;48.140;11.516;2023-03-19T02:33:30;95190.0;;;9.3;61.1
50166;BME280;36071;48.140;11.516;2023-03-19T02:38:31;95200.0;;;9.4;61.0
50166;BME280;36071;48.140;11.516;2023-03-19T02:43:30;95200.0;;;9.3;61.4
50166;BME280;36071;48.140;11.516;2023-03-19T02:48:30;95200.0;;;9.2;61.6
50166;BME280;36071;48.140;11.516;2023-03-19T02:53:30;95210.0;;;9.0;62.6
50166;BME280;36071;48.140;11.516;2023-03-19T02:58:30;95210.0;;;8.9;63.1
50166;BME280;36071;48.140;11.516;2023-03-19T03:03:30;95210.0;;;9.0;62.8
50166;BME280;36071;48.140;11.516;2023-03-19T03:13:30;95220.0;;;9.0;62.9
50166;BME280;36071;48.140;11.516;2023-03-19T03:18:30;95230.0;;;9.0;63.0
50166;BME280;36071;48.140;11.516;2023-03-19T03:23:30;95220.0;;;8.9;63.7
50166;BME280;36071;48.140;11.516;2023-03-19T03:28:30;95220.0;;;8.8;63.9
50166;BME280;36071;48.140;11.516;2023-03-19T03:33:30;95210.0;;;8.9;63.8
50166;BME280;36071;48.140;11.516;2023-03-19T03:38:30;95220.0;;;8.8;64.3
50166;BME280;36071;48.140;11.516;2023-03-19T03:43:30;95230.0;;;8.8;64.3
50166;BME280;36071;48.140;11.516;2023-03-19T03:48:30;95240.0;;;8.8;64.6
50166;BME280;36071;48.140;11.516;2023-03-19T03:53:30;95250.0;;;8.8;64.6
50166;BME280;36071;48.140;11.516;2023-03-19T03:58:30;95240.0;;;8.8;64.1
50166;BME280;36071;48.140;11.516;2023-03-19T04:03:30;95250.0;;;8.8;64.1
50166;BME280;36071;48.140;11.516;2023-03-19T04:08:30;95250.0;;;8.8;64.4
50166;BME280;36071;48.140;11.516;2023-03-19T04:13:30;95250.0;;;8.8;64.5
50166;BME280;36071;48.140;11.516;2023-03-19T04:18:30;95250.0;;;8.6;65.0
50166;BME280;36071;48.140;11.516;2023-03-19T04:23:30;95260.0;;;8.6;64.6
50166;BME280;36071;48.140;11.516;2023-03-19T04:28:30;95270.0;;;8.5;65.4
50166;BME280;36071;48.140;11.516;2023-03-19T04:33:30;95260.0;;;8.4;65.7
50166;BME280;36071;48.140;11.516;2023-03-19T04:38:30;95270.0;;;8.5;65.2
50166;BME280;36071;48.140;11.516;2023-03-19T04:43:30;95270.0;;;8.6;65.2
50166;BME280;36071;48.140;11.516;2023-03-19T04:48:30;95280.0;;;8.6;65.1
50166;BME280;36071;48.140;11.516;2023-03-19T04:53:30;95280.0;;;8.5;65.8
50166;BME280;36071;48.140;11.516;2023-03-19T04:58:30;95280.0;;;8.4;66.1
50166;BME280;36071;48.140;11.516;2023-03-19T05:03:30;95280.0;;;8.5;66.0
50166;BME280;36071;48.140;11.516;2023-03-19T05:08:30;95280.0;;;8.6;65.8
50166;BME280;36071;48.140;11.516;2023-03-19T05:13:30;95290.0;;;8.6;65.8
50166;BME280;36071;48.140;11.516;2023-03-19T05:18:30;95300.0;;;8.6;66.1
50166;BME280;36071;48.140;11.516;2023-03-19T05:23:30;95300.0;;;8.7;65.7
50166;BME280;36071;48.140;11.516;2023-03-19T05:28:31;95310.0;;;8.6;66.4
50166;BME280;36071;48.140;11.516;2023-03-19T05:33:30;95280.0;;;8.3;66.3
50166;BME280;36071;48.140;11.516;2023-03-19T05:38:30;95330.0;;;8.6;66.5
50166;BME280;36071;48.140;11.516;2023-03-19T05:43:30;95330.0;;;8.7;66.0
50166;BME280;36071;48.140;11.516;2023-03-19T05:48:30;95340.0;;;8.7;66.4
50166;BME280;36071;48.140;11.516;2023-03-19T05:53:30;95350.0;;;8.8;66.5
50166;BME280;36071;48.140;11.516;2023-03-19T05:58:30;95360.0;;;8.8;66.5
50166;BME280;36071;48.140;11.516;2023-03-19T06:03:30;95360.0;;;8.9;66.5
50166;BME280;36071;48.140;11.516;2023-03-19T06:08:30;95370.0;;;8.9;66.9
50166;BME280;36071;48.140;11.516;2023-03-19T06:13:30;95380.0;;;9.1;67.0
50166;BME280;36071;48.140;11.516;2023-03-19T06:18:30;95390.0;;;9.0;67.4
50166;BME280;36071;48.140;11.516;2023-03-19T06:23:30;95400.0;;;9.1;67.4
50166;BME280;36071;48.140;11.516;2023-03-19T06:28:30;95410.0;;;9.2;67.1
50166;BME280;36071;48.140;11.516;2023-03-19T06:38:30;95430.0;;;9.3;67.1
50166;BME280;36071;48.140;11.516;2023-03-19T06:43:31;95430.0;;;9.3;67.4
50166;BME280;36071;48.140;11.516;2023-03-19T06:48:30;95440.0;;;9.4;67.1
50166;BME280;36071;48.140;11.516;2023-03-19T06:58:30;95440.0;;;9.5;66.8
50166;BME280;36071;48.140;11.516;2023-03-19T07:03:30;95440.0;;;9.6;66.6
50166;BME280;36071;48.140;11.516;2023-03-19T07:08:30;95440.0;;;9.7;66.5
50166;BME280;36071;48.140;11.516;2023-03-19T07:13:30;95450.0;;;9.7;66.4
50166;BME280;36071;48.140;11.516;2023-03-19T07:18:30;95470.0;;;9.7;66.6
50166;BME280;36071;48.140;11.516;2023-03-19T07:23:30;95470.0;;;9.8;66.5
50166;BME280;36071;48.140;11.516;2023-03-19T07:28:30;95490.0;;;9.8;66.9
50166;BME280;36071;48.140;11.516;2023-03-19T07:33:30;95480.0;;;9.8;67.0
50166;BME280;36071;48.140;11.516;2023-03-19T07:38:30;95500.0;;;9.9;67.0
50166;BME280;36071;48.140;11.516;2023-03-19T07:43:30;95510.0;;;10.0;67.2
50166;BME280;36071;48.140;11.516;2023-03-19T07:48:30;95510.0;;;10.1;67.6
50166;BME280;36071;48.140;11.516;2023-03-19T07:53:30;95520.0;;;10.0;68.6
50166;BME280;36071;48.140;11.516;2023-03-19T07:58:30;95530.0;;;10.1;68.7
50166;BME280;36071;48.140;11.516;2023-03-19T08:03:30;95530.0;;;10.1;68.9
50166;BME280;36071;48.140;11.516;2023-03-19T08:08:30;95510.0;;;10.1;69.2
50166;BME280;36071;48.140;11.516;2023-03-19T08:13:30;95510.0;;;10.1;69.7
50166;BME280;36071;48.140;11.516;2023-03-19T08:18:30;95510.0;;;10.2;70.3
50166;BME280;36071;48.140;11.516;2023-03-19T08:23:30;95520.0;;;10.1;71.3
50166;BME280;36071;48.140;11.516;2023-03-19T08:28:30;95520.0;;;10.2;71.4
50166;BME280;36071;48.140;11.516;2023-03-19T08:33:30;95510.0;;;10.2;72.1
50166;BME280;36071;48.140;11.516;2023-03-19T08:43:30;95530.0;;;10.3;72.2
50166;BME280;36071;48.140;11.516;2023-03-19T08:48:30;95540.0;;;10.4;71.6
50166;BME280;36071;48.140;11.516;2023-03-19T08:53:30;95540.0;;;10.5;71.2
50166;BME280;36071;48.140;11.516;2023-03-19T08:58:30;95550.0;;;10.6;70.8
50166;BME280;36071;48.140;11.516;2023-03-19T09:03:30;95550.0;;;10.6;70.4
50166;BME280;36071;48.140;11.516;2023-03-19T09:08:30;95560.0;;;10.7;69.8
50166;BME280;36071;48.140;11.516;2023-03-19T09:13:30;95550.0;;;10.8;69.5
50166;BME280;36071;48.140;11.516;2023-03-19T09:18:30;95560.0;;;10.9;69.2
50166;BME280;36071;48.140;11.516;2023-03-19T09:23:30;95550.0;;;10.9;68.8
50166;BME280;36071;48.140;11.516;2023-03-19T09:28:30;95560.0;;;10.9;68.7
50166;BME280;36071;48.140;11.516;2023-03-19T09:33:30;95570.0;;;11.0;69.0
50166;BME280;36071;48.140;11.516;2023-03-19T09:38:30;95570.0;;;10.9;68.9
50166;BME280;36071;48.140;11.516;2023-03-19T09:43:36;95580.0;;;11.1;70.1
50166;BME280;36071;48.140;11.516;2023-03-19T09:48:31;95580.0;;;10.9;70.9
50166;BME280;36071;48.140;11.516;2023-03-19T09:53:33;95590.0;;;10.8;71.8
50166;BME280;36071;48.140;11.516;2023-03-19T09:58:31;95590.0;;;10.9;71.7
50166;BME280;36071;48.140;11.516;2023-03-19T10:03:34;95550.0;;;10.7;71.6
50166;BME280;36071;48.140;11.516;2023-03-19T10:08:36;95580.0;;;11.0;72.6
50166;BME280;36071;48.140;11.516;2023-03-19T10:13:34;95570.0;;;11.2;71.9
50166;BME280;36071;48.140;11.516;2023-03-19T10:18:31;95570.0;;;11.3;71.8
50166;BME280;36071;48.140;11.516;2023-03-19T10:23:32;95570.0;;;11.4;71.2
50166;BME280;36071;48.140;11.516;2023-03-19T10:28:30;95560.0;;;11.6;70.1
50166;BME280;36071;48.140;11.516;2023-03-19T10:33:31;95570.0;;;11.6;68.9
50166;BME280;36071;48.140;11.516;2023-03-19T10:38:30;95570.0;;;11.7;69.0
50166;BME280;36071;48.140;11.516;2023-03-19T10:43:30;95570.0;;;11.7;68.7
50166;BME280;36071;48.140;11.516;2023-03-19T10:48:30;95580.0;;;11.8;69.4
50166;BME280;36071;48.140;11.516;2023-03-19T10:53:32;95530.0;;;11.5;68.5
50166;BME280;36071;48.140;11.516;2023-03-19T10:58:31;95560.0;;;11.8;67.3
50166;BME280;36071;48.140;11.516;2023-03-19T11:03:31;95550.0;;;11.9;67.5
50166;BME280;36071;48.140;11.516;2023-03-19T11:08:32;95540.0;;;12.1;66.9
50166;BME280;36071;48.140;11.516;2023-03-19T11:13:32;95540.0;;;12.0;65.2
50166;BME280;36071;48.140;11.516;2023-03-19T11:18:35;95540.0;;;12.2;64.3
50166;BME280;36071;48.140;11.516;2023-03-19T11:23:31;95550.0;;;12.3;63.4
50166;BME280;36071;48.140;11.516;2023-03-19T11:28:30;95540.0;;;12.5;62.2
50166;BME280;36071;48.140;11.516;2023-03-19T11:33:42;95530.0;;;12.7;61.7
50166;BME280;36071;48.140;11.516;2023-03-19T11:43:35;95530.0;;;13.2;58.6
50166;BME280;36071;48.140;11.516;2023-03-19T11:48:33;95530.0;;;13.4;58.9
50166;BME280;36071;48.140;11.516;2023-03-19T11:53:30;95510.0;;;13.2;59.9
50166;BME280;36071;48.140;11.516;2023-03-19T11:58:38;95530.0;;;13.4;58.1
50166;BME280;36071;48.140;11.516;2023-03-19T12:03:35;95520.0;;;13.5;58.4
50166;BME280;36071;48.140;11.516;2023-03-19T12:08:31;95510.0;;;13.4;58.3
50166;BME280;36071;48.140;11.516;2023-03-19T12:13:34;95500.0;;;13.3;57.4
50166;BME280;36071;48.140;11.516;2023-03-19T12:18:37;95500.0;;;13.5;57.6
50166;BME280;36071;48.140;11.516;2023-03-19T12:23:32;95490.0;;;13.8;55.5
50166;BME280;36071;48.140;11.516;2023-03-19T12:28:31;95470.0;;;14.1;55.0
50166;BME280;36071;48.140;11.516;2023-03-19T12:33:33;95480.0;;;14.5;54.6
50166;BME280;36071;48.140;11.516;2023-03-19T12:38:30;95470.0;;;15.6;51.2
50166;BME280;36071;48.140;11.516;2023-03-19T12:43:31;95470.0;;;15.7;48.9
50166;BME280;36071;48.140;11.516;2023-03-19T12:48:30;95470.0;;;15.2;50.4
50166;BME280;36071;48.140;11.516;2023-03-19T12:53:32;95460.0;;;14.9;48.3
50166;BME280;36071;48.140;11.516;2023-03-19T12:58:34;95450.0;;;14.9;48.8
50166;BME280;36071;48.140;11.516;2023-03-19T13:03:31;95450.0;;;14.5;49.1
50166;BME280;36071;48.140;11.516;2023-03-19T13:08:31;95450.0;;;14.3;49.5
50166;BME280;36071;48.140;11.516;2023-03-19T13:13:33;95450.0;;;14.3;49.6
50166;BME280;36071;48.140;11.516;2023-03-19T13:18:32;95440.0;;;14.2;49.7
50166;BME280;36071;48.140;11.516;2023-03-19T13:23:30;95440.0;;;14.2;48.6
50166;BME280;36071;48.140;11.516;2023-03-19T13:28:31;95450.0;;;14.1;49.1
50166;BME280;36071;48.140;11.516;2023-03-19T13:33:30;95430.0;;;13.9;50.2
50166;BME280;36071;48.140;11.516;2023-03-19T13:38:33;95430.0;;;13.9;51.4
50166;BME280;36071;48.140;11.516;2023-03-19T13:43:39;95430.0;;;13.8;50.9
50166;BME280;36071;48.140;11.516;2023-03-19T13:48:34;95420.0;;;13.8;51.6
50166;BME280;36071;48.140;11.516;2023-03-19T13:53:34;95430.0;;;13.7;51.4
50166;BME280;36071;48.140;11.516;2023-03-19T13:58:30;95430.0;;;13.8;51.1
50166;BME280;36071;48.140;11.516;2023-03-19T14:03:30;95420.0;;;13.8;51.4
50166;BME280;36071;48.140;11.516;2023-03-19T14:08:31;95420.0;;;13.9;52.0
50166;BME280;36071;48.140;11.516;2023-03-19T14:13:31;95420.0;;;14.3;51.5
50166;BME280;36071;48.140;11.516;2023-03-19T14:18:30;95420.0;;;15.1;50.6
50166;BME280;36071;48.140;11.516;2023-03-19T14:23:30;95410.0;;;15.8;47.6
50166;BME280;36071;48.140;11.516;2023-03-19T14:28:33;95400.0;;;16.1;44.5
50166;BME280;36071;48.140;11.516;2023-03-19T14:33:32;95400.0;;;15.9;45.1
50166;BME280;36071;48.140;11.516;2023-03-19T14:38:53;95400.0;;;16.0;45.7
50166;BME280;36071;48.140;11.516;2023-03-19T14:43:35;95410.0;;;16.1;43.7
50166;BME280;36071;48.140;11.516;2023-03-19T14:48:38;95400.0;;;16.0;44.3
50166;BME280;36071;48.140;11.516;2023-03-19T14:53:33;95400.0;;;16.2;43.6
50166;BME280;36071;48.140;11.516;2023-03-19T14:58:30;95390.0;;;16.2;43.8
50166;BME280;36071;48.140;11.516;2023-03-19T15:03:30;95380.0;;;16.1;44.0
50166;BME280;36071;48.140;11.516;2023-03-19T15:08:31;95390.0;;;16.1;44.0
50166;BME280;36071;48.140;11.516;2023-03-19T15:13:33;95380.0;;;16.0;42.6
50166;BME280;36071;48.140;11.516;2023-03-19T15:18:30;95370.0;;;15.9;43.2
50166;BME280;36071;48.140;11.516;2023-03-19T15:23:30;95370.0;;;15.7;43.5
50166;BME280;36071;48.140;11.516;2023-03-19T15:28:30;95360.0;;;15.6;44.3
50166;BME280;36071;48.140;11.516;2023-03-19T15:33:30;95380.0;;;15.6;44.3
50166;BME280;36071;48.140;11.516;2023-03-19T15:38:32;95370.0;;;15.5;45.4
50166;BME280;36071;48.140;11.516;2023-03-19T15:43:30;95380.0;;;15.5;44.8
50166;BME280;36071;48.140;11.516;2023-03-19T15:48:32;95370.0;;;15.4;44.7
50166;BME280;36071;48.140;11.516;2023-03-19T15:53:31;95380.0;;;15.4;44.1
50166;BME280;36071;48.140;11.516;2023-03-19T15:58:31;95380.0;;;15.3;43.6
50166;BME280;36071;48.140;11.516;2023-03-19T16:03:31;95370.0;;;15.3;43.7
50166;BME280;36071;48.140;11.516;2023-03-19T16:08:31;95380.0;;;15.2;45.0
50166;BME280;36071;48.140;11.516;2023-03-19T16:13:31;95380.0;;;15.2;44.7
50166;BME280;36071;48.140;11.516;2023-03-19T16:18:39;95380.0;;;15.0;45.0
50166;BME280;36071;48.140;11.516;2023-03-19T16:23:31;95390.0;;;15.0;44.3
50166;BME280;36071;48.140;11.516;2023-03-19T16:28:30;95390.0;;;15.0;45.0
50166;BME280;36071;48.140;11.516;2023-03-19T16:33:30;95400.0;;;14.9;46.3
50166;BME280;36071;48.140;11.516;2023-03-19T16:43:31;95410.0;;;14.8;45.8
50166;BME280;36071;48.140;11.516;2023-03-19T16:48:30;95410.0;;;14.7;46.1
50166;BME280;36071;48.140;11.516;2023-03-19T16:58:31;95420.0;;;14.6;46.5
50166;BME280;36071;48.140;11.516;2023-03-19T17:03:30;95420.0;;;14.5;46.6
50166;BME280;36071;48.140;11.516;2023-03-19T17:08:30;95420.0;;;14.4;47.2
50166;BME280;36071;48.140;11.516;2023-03-19T17:13:30;95430.0;;;14.3;47.1
50166;BME280;36071;48.140;11.516;2023-03-19T17:18:31;95430.0;;;14.3;47.2
50166;BME280;36071;48.140;11.516;2023-03-19T17:23:30;95440.0;;;14.2;47.2
50166;BME280;36071;48.140;11.516;2023-03-19T17:28:30;95440.0;;;14.2;47.5
50166;BME280;36071;48.140;11.516;2023-03-19T17:33:30;95450.0;;;14.2;48.4
50166;BME280;36071;48.140;11.516;2023-03-19T17:38:30;95440.0;;;14.1;48.4
50166;BME280;36071;48.140;11.516;2023-03-19T17:43:30;95450.0;;;14.1;48.5
50166;BME280;36071;48.140;11.516;2023-03-19T17:48:30;95460.0;;;13.9;49.0
50166;BME280;36071;48.140;11.516;2023-03-19T17:53:30;95460.0;;;13.9;48.8
50166;BME280;36071;48.140;11.516;2023-03-19T17:58:30;95460.0;;;13.9;49.6
50166;BME280;36071;48.140;11.516;2023-03-19T18:03:30;95460.0;;;13.9;49.7
50166;BME280;36071;48.140;11.516;2023-03-19T18:08:30;95460.0;;;13.8;50.0
50166;BME280;36071;48.140;11.516;2023-03-19T18:13:30;95460.0;;;13.7;50.5
50166;BME280;36071;48.140;11.516;2023-03-19T18:18:30;95460.0;;;13.6;51.0
50166;BME280;36071;48.140;11.516;2023-03-19T18:23:30;95470.0;;;13.6;51.3
50166;BME280;36071;48.140;11.516;2023-03-19T18:28:30;95470.0;;;13.5;51.6
50166;BME280;36071;48.140;11.516;2023-03-19T18:33:30;95470.0;;;13.5;51.8
50166;BME280;36071;48.140;11.516;2023-03-19T18:38:30;95470.0;;;13.4;52.0
50166;BME280;36071;48.140;11.516;2023-03-19T18:43:30;95480.0;;;13.4;52.2
50166;BME280;36071;48.140;11.516;2023-03-19T18:48:30;95490.0;;;13.4;52.3
50166;BME280;36071;48.140;11.516;2023-03-19T18:53:30;95490.0;;;13.3;52.6
50166;BME280;36071;48.140;11.516;2023-03-19T18:58:30;95490.0;;;13.2;53.0
50166;BME280;36071;48.140;11.516;2023-03-19T19:03:30;95490.0;;;13.1;53.2
50166;BME280;36071;48.140;11.516;2023-03-19T19:08:30;95500.0;;;13.1;53.3
50166;BME280;36071;48.140;11.516;2023-03-19T19:13:30;95510.0;;;13.0;53.5
50166;BME280;36071;48.140;11.516;2023-03-19T19:18:30;95500.0;;;12.8;54.1
50166;BME280;36071;48.140;11.516;2023-03-19T19:23:30;95500.0;;;12.8;54.3
50166;BME280;36071;48.140;11.516;2023-03-19T19:28:31;95520.0;;;12.7;54.7
50166;BME280;36071;48.140;11.516;2023-03-19T19:33:31;95520.0;;;12.7;54.8
50166;BME280;36071;48.140;11.516;2023-03-19T19:38:30;95530.0;;;12.7;55.3
50166;BME280;36071;48.140;11.516;2023-03-19T19:43:30;95540.0;;;12.6;55.6
50166;BME280;36071;48.140;11.516;2023-03-19T19:48:30;95550.0;;;12.6;55.3
50166;BME280;36071;48.140;11.516;2023-03-19T19:53:30;95550.0;;;12.5;55.6
50166;BME280;36071;48.140;11.516;2023-03-19T19:58:30;95550.0;;;12.6;55.5
50166;BME280;36071;48.140;11.516;2023-03-19T20:03:31;95560.0;;;12.5;56.1
50166;BME280;36071;48.140;11.516;2023-03-19T20:08:30;95570.0;;;12.6;56.4
50166;BME280;36071;48.140;11.516;2023-03-19T20:13:31;95570.0;;;12.3;58.1
50166;BME280;36071;48.140;11.516;2023-03-19T20:18:30;95580.0;;;12.3;59.5
50166;BME280;36071;48.140;11.516;2023-03-19T20:23:30;95590.0;;;12.2;61.0
50166;BME280;36071;48.140;11.516;2023-03-19T20:28:31;95600.0;;;12.0;62.4
50166;BME280;36071;48.140;11.516;2023-03-19T20:33:30;95610.0;;;12.1;62.5
50166;BME280;36071;48.140;11.516;2023-03-19T20:38:30;95620.0;;;12.0;63.7
50166;BME280;36071;48.140;11.516;2023-03-19T20:43:31;95620.0;;;12.0;64.2
50166;BME280;36071;48.140;11.516;2023-03-19T20:48:30;95630.0;;;12.0;64.9
50166;BME280;36071;48.140;11.516;2023-03-19T20:53:30;95640.0;;;11.8;65.9
50166;BME280;36071;48.140;11.516;2023-03-19T20:58:31;95640.0;;;11.7;66.2
50166;BME280;36071;48.140;11.516;2023-03-19T21:03:30;95600.0;;;11.3;67.2
50166;BME280;36071;48.140;11.516;2023-03-19T21:08:30;95630.0;;;11.5;69.2
50166;BME280;36071;48.140;11.516;2023-03-19T21:13:30;95610.0;;;11.1;73.0
50166;BME280;36071;48.140;11.516;2023-03-19T21:18:30;95650.0;;;11.1;76.1
50166;BME280;36071;48.140;11.516;2023-03-19T21:23:30;95670.0;;;11.1;77.2
50166;BME280;36071;48.140;11.516;2023-03-19T21:28:32;95670.0;;;11.1;77.3
50166;BME280;36071;48.140;11.516;2023-03-19T21:33:31;95660.0;;;11.1;78.5
50166;BME280;36071;48.140;11.516;2023-03-19T21:38:30;95670.0;;;11.0;79.5
50166;BME280;36071;48.140;11.516;2023-03-19T21:43:31;95670.0;;;11.1;78.6
50166;BME280;36071;48.140;11.516;2023-03-19T21:48:31;95670.0;;;11.1;79.0
50166;BME280;36071;48.140;11.516;2023-03-19T21:53:30;95680.0;;;11.1;78.5
50166;BME280;36071;48.140;11.516;2023-03-19T21:58:31;95680.0;;;11.0;78.8
50166;BME280;36071;48.140;11.516;2023-03-19T22:03:30;95680.0;;;11.0;78.2
50166;BME280;36071;48.140;11.516;2023-03-19T22:08:30;95680.0;;;10.9;78.0
50166;BME280;36071;48.140;11.516;2023-03-19T22:13:30;95690.0;;;10.9;78.0
50166;BME280;36071;48.140;11.516;2023-03-19T22:18:30;95680.0;;;10.9;77.4
50166;BME280;36071;48.140;11.516;2023-03-19T22:23:30;95690.0;;;10.9;78.3
50166;BME280;36071;48.140;11.516;2023-03-19T22:28:32;95680.0;;;10.9;78.3
50166;BME280;36071;48.140;11.516;2023-03-19T22:33:30;95690.0;;;10.8;78.9
50166;BME280;36071;48.140;11.516;2023-03-19T22:38:30;95690.0;;;10.7;79.3
50166;BME280;36071;48.140;11.516;2023-03-19T22:43:31;95690.0;;;10.7;79.0
50166;BME280;36071;48.140;11.516;2023-03-19T22:48:30;95690.0;;;10.7;79.3
50166;BME280;36071;48.140;11.516;2023-03-19T22:53:31;95690.0;;;10.8;77.5
50166;BME280;36071;48.140;11.516;2023-03-19T22:58:30;95690.0;;;10.7;78.5
50166;BME280;36071;48.140;11.516;2023-03-19T23:03:30;95690.0;;;10.6;78.0
50166;BME280;36071;48.140;11.516;2023-03-19T23:08:30;95690.0;;;10.6;78.3
50166;BME280;36071;48.140;11.516;2023-03-19T23:13:30;95690.0;;;10.4;80.5
50166;BME280;36071;48.140;11.516;2023-03-19T23:18:31;95700.0;;;10.4;79.4
50166;BME280;36071;48.140;11.516;2023-03-19T23:23:30;95690.0;;;10.3;80.1
50166;BME280;36071;48.140;11.516;2023-03-19T23:28:31;95690.0;;;10.3;78.9
50166;BME280;36071;48.140;11.516;2023-03-19T23:33:30;95700.0;;;10.2;79.5
50166;BME280;36071;48.140;11.516;2023-03-19T23:38:30;95700.0;;;10.2;79.1
50166;BME280;36071;48.140;11.516;2023-03-19T23:43:30;95700.0;;;10.2;78.1
50166;BME280;36071;48.140;11.516;2023-03-19T23:48:31;95700.0;;;10.1;79.5
50166;BME280;36071;48.140;11.516;2023-03-19T23:53:30;95700.0;;;10.1;79.2
50166;BME280;36071;48.140;11.516;2023-03-19T23:58:31;95700.0;;;10.1;79.0
